createdAt,value
2018-05-02T00:00:17.416Z,5.00
2018-05-02T00:01:17.311Z,5.00
2018-05-02T00:02:17.208Z,4.80
2018-05-02T00:03:17.105Z,4.90
2018-05-02T00:04:17.005Z,5.20
2018-05-02T00:05:16.898Z,5.30
2018-05-02T00:06:16.795Z,4.80
2018-05-02T00:07:16.691Z,4.80
2018-05-02T00:08:16.589Z,4.40
2018-05-02T00:09:16.486Z,5.10
2018-05-02T00:10:16.403Z,5.40
2018-05-02T00:11:16.279Z,4.90
2018-05-02T00:12:16.175Z,5.00
2018-05-02T00:13:16.072Z,4.80
2018-05-02T00:14:15.969Z,5.00
2018-05-02T00:15:15.866Z,5.10
2018-05-02T00:16:15.774Z,5.10
2018-05-02T00:17:15.659Z,4.70
2018-05-02T00:18:15.555Z,5.20
2018-05-02T00:19:15.453Z,5.40
2018-05-02T00:20:15.362Z,5.00
2018-05-02T00:21:15.259Z,5.30
2018-05-02T00:22:15.155Z,4.90
2018-05-02T00:23:15.052Z,5.00
2018-05-02T00:24:14.950Z,4.80
2018-05-02T00:25:14.845Z,5.10
2018-05-02T00:26:14.743Z,5.00
2018-05-02T00:27:14.640Z,5.00
2018-05-02T00:28:14.542Z,5.20
2018-05-02T00:29:14.431Z,5.10
2018-05-02T00:30:14.329Z,5.70
2018-05-02T00:31:14.226Z,5.50
2018-05-02T00:32:14.121Z,5.40
2018-05-02T00:33:14.019Z,5.70
2018-05-02T00:34:13.916Z,5.40
2018-05-02T00:35:13.812Z,5.40
2018-05-02T00:36:13.710Z,5.30
2018-05-02T00:37:13.606Z,5.50
2018-05-02T00:38:13.502Z,5.80
2018-05-02T00:39:13.399Z,5.40
2018-05-02T00:40:13.295Z,5.50
2018-05-02T00:41:13.192Z,5.30
2018-05-02T00:42:13.088Z,5.10
2018-05-02T00:43:12.984Z,5.30
2018-05-02T00:44:12.882Z,5.40
2018-05-02T00:45:12.794Z,5.10
2018-05-02T00:46:12.676Z,5.50
2018-05-02T00:47:12.583Z,5.50
2018-05-02T00:48:12.484Z,5.50
2018-05-02T00:49:12.377Z,6.10
2018-05-02T00:50:12.277Z,5.50
2018-05-02T00:51:12.171Z,5.60
2018-05-02T00:52:12.067Z,5.70
2018-05-02T00:53:11.964Z,5.40
2018-05-02T00:54:12.160Z,5.00
2018-05-02T00:55:11.759Z,5.00
2018-05-02T00:56:11.655Z,5.00
2018-05-02T00:57:11.554Z,5.30
2018-05-02T00:58:11.447Z,5.40
2018-05-02T00:59:11.345Z,5.80
2018-05-02T01:00:11.242Z,6.00
2018-05-02T01:01:11.137Z,6.40
2018-05-02T01:02:11.036Z,6.90
2018-05-02T01:03:10.931Z,5.50
2018-05-02T01:04:10.827Z,5.90
2018-05-02T01:05:10.724Z,5.60
2018-05-02T01:06:10.621Z,6.00
2018-05-02T01:07:10.517Z,6.20
2018-05-02T01:08:10.414Z,6.70
2018-05-02T01:09:10.314Z,6.20
2018-05-02T01:10:10.207Z,6.20
2018-05-02T01:11:10.105Z,5.70
2018-05-02T01:12:10.001Z,6.20
2018-05-02T01:13:09.897Z,6.00
2018-05-02T01:14:09.794Z,5.90
2018-05-02T01:15:09.691Z,6.20
2018-05-02T01:16:09.587Z,6.10
2018-05-02T01:17:09.484Z,6.30
2018-05-02T01:18:09.381Z,5.90
2018-05-02T01:19:09.278Z,6.10
2018-05-02T01:20:09.176Z,6.00
2018-05-02T01:21:09.072Z,6.10
2018-05-02T01:22:08.968Z,6.30
2018-05-02T01:23:08.866Z,6.10
2018-05-02T01:24:08.762Z,6.60
2018-05-02T01:25:08.660Z,6.30
2018-05-02T01:26:08.555Z,6.00
2018-05-02T01:27:08.452Z,6.50
2018-05-02T01:28:08.349Z,6.00
2018-05-02T01:29:08.258Z,6.20
2018-05-02T01:30:08.143Z,7.00
2018-05-02T01:31:08.050Z,6.80
2018-05-02T01:32:07.949Z,6.40
2018-05-02T01:33:07.848Z,6.50
2018-05-02T01:34:07.741Z,6.00
2018-05-02T01:35:07.637Z,6.50
2018-05-02T01:36:07.535Z,7.00
2018-05-02T01:37:07.431Z,6.70
2018-05-02T01:38:07.353Z,6.80
2018-05-02T01:39:07.229Z,6.00
2018-05-02T01:40:07.122Z,6.90
2018-05-02T01:41:07.018Z,6.80
2018-05-02T01:42:06.918Z,6.70
2018-05-02T01:43:06.811Z,6.50
2018-05-02T01:44:07.012Z,7.10
2018-05-02T01:45:06.605Z,6.00
2018-05-02T01:46:06.502Z,6.20
2018-05-02T01:47:06.398Z,6.80
2018-05-02T01:48:06.295Z,6.60
2018-05-02T01:49:06.192Z,6.00
2018-05-02T01:50:06.089Z,6.00
2018-05-02T01:51:05.985Z,5.60
2018-05-02T01:52:05.882Z,6.20
2018-05-02T01:53:05.778Z,6.50
2018-05-02T01:54:05.675Z,6.50
2018-05-02T01:55:05.572Z,6.50
2018-05-02T01:56:05.468Z,6.80
2018-05-02T01:57:05.365Z,6.80
2018-05-02T01:58:05.265Z,6.60
2018-05-02T01:59:05.159Z,6.90
2018-05-02T02:00:05.055Z,7.20
2018-05-02T02:01:04.952Z,7.30
2018-05-02T02:02:04.849Z,7.20
2018-05-02T02:03:04.746Z,7.20
2018-05-02T02:04:04.942Z,7.30
2018-05-02T02:05:04.539Z,7.70
2018-05-02T02:06:04.437Z,7.20
2018-05-02T02:07:04.332Z,6.70
2018-05-02T02:08:04.229Z,6.90
2018-05-02T02:09:04.128Z,6.20
2018-05-02T02:10:04.022Z,6.80
2018-05-02T02:11:03.919Z,6.80
2018-05-02T02:12:03.817Z,7.00
2018-05-02T02:13:03.712Z,7.30
2018-05-02T02:14:03.609Z,7.80
2018-05-02T02:15:03.513Z,9.00
2018-05-02T02:16:03.406Z,9.10
2018-05-02T02:17:03.299Z,8.40
2018-05-02T02:18:03.184Z,8.40
2018-05-02T02:19:03.083Z,9.00
2018-05-02T02:20:02.982Z,8.50
2018-05-02T02:21:02.874Z,8.90
2018-05-02T02:22:02.770Z,9.10
2018-05-02T02:23:02.668Z,8.90
2018-05-02T02:24:02.864Z,8.00
2018-05-02T02:25:02.462Z,8.30
2018-05-02T02:26:02.357Z,8.50
2018-05-02T02:27:02.252Z,9.20
2018-05-02T02:28:02.149Z,7.80
2018-05-02T02:29:02.047Z,7.90
2018-05-02T02:30:01.945Z,8.20
2018-05-02T02:31:01.845Z,8.00
2018-05-02T02:32:01.740Z,7.70
2018-05-02T02:33:01.635Z,8.20
2018-05-02T02:34:01.571Z,7.80
2018-05-02T02:35:01.426Z,7.20
2018-05-02T02:36:01.327Z,8.30
2018-05-02T02:37:01.223Z,7.70
2018-05-02T02:38:01.119Z,8.10
2018-05-02T02:39:01.014Z,7.90
2018-05-02T02:40:00.910Z,7.50
2018-05-02T02:41:00.809Z,7.10
2018-05-02T02:42:00.703Z,7.10
2018-05-02T02:43:00.601Z,7.30
2018-05-02T02:44:00.506Z,7.70
2018-05-02T02:45:00.395Z,8.30
2018-05-02T02:46:00.290Z,9.00
2018-05-02T02:47:00.196Z,8.20
2018-05-02T02:48:00.097Z,8.60
2018-05-02T02:48:59.980Z,7.90
2018-05-02T02:49:59.876Z,8.20
2018-05-02T02:50:59.776Z,8.10
2018-05-02T02:51:59.670Z,8.40
2018-05-02T02:52:59.567Z,7.80
2018-05-02T02:53:59.463Z,7.70
2018-05-02T02:54:59.359Z,7.40
2018-05-02T02:55:59.256Z,7.70
2018-05-02T02:56:59.153Z,7.70
2018-05-02T02:57:59.050Z,7.40
2018-05-02T02:58:58.947Z,7.40
2018-05-02T02:59:58.844Z,8.00
2018-05-02T03:00:58.741Z,8.50
2018-05-02T03:01:58.626Z,9.00
2018-05-02T03:02:58.522Z,8.50
2018-05-02T03:03:58.420Z,9.50
2018-05-02T03:04:58.314Z,7.70
2018-05-02T03:05:58.213Z,8.20
2018-05-02T03:06:58.109Z,8.00
2018-05-02T03:07:58.005Z,8.20
2018-05-02T03:08:57.902Z,7.80
2018-05-02T03:09:57.798Z,8.00
2018-05-02T03:10:57.696Z,8.30
2018-05-02T03:11:57.593Z,8.20
2018-05-02T03:12:57.489Z,8.50
2018-05-02T03:13:57.385Z,8.40
2018-05-02T03:14:57.282Z,8.70
2018-05-02T03:15:57.178Z,8.40
2018-05-02T03:16:57.075Z,7.90
2018-05-02T03:17:56.978Z,9.10
2018-05-02T03:18:57.168Z,7.70
2018-05-02T03:19:56.765Z,7.20
2018-05-02T03:20:56.663Z,7.00
2018-05-02T03:21:56.558Z,7.20
2018-05-02T03:22:56.456Z,7.30
2018-05-02T03:23:56.352Z,7.90
2018-05-02T03:24:56.248Z,7.60
2018-05-02T03:25:56.145Z,7.50
2018-05-02T03:26:56.041Z,7.70
2018-05-02T03:27:55.938Z,7.80
2018-05-02T03:28:55.834Z,7.00
2018-05-02T03:29:55.721Z,7.20
2018-05-02T03:30:55.616Z,7.20
2018-05-02T03:31:55.514Z,7.10
2018-05-02T03:32:55.421Z,7.10
2018-05-02T03:33:55.306Z,7.20
2018-05-02T03:34:55.202Z,7.80
2018-05-02T03:35:55.098Z,7.10
2018-05-02T03:36:54.995Z,7.00
2018-05-02T03:37:54.892Z,7.40
2018-05-02T03:38:55.089Z,7.30
2018-05-02T03:39:54.685Z,7.30
2018-05-02T03:40:54.582Z,7.00
2018-05-02T03:41:54.480Z,7.30
2018-05-02T03:42:54.378Z,7.00
2018-05-02T03:43:54.272Z,7.10
2018-05-02T03:44:54.169Z,6.30
2018-05-02T03:45:54.081Z,6.60
2018-05-02T03:46:53.969Z,7.00
2018-05-02T03:47:53.867Z,7.50
2018-05-02T03:48:53.762Z,6.90
2018-05-02T03:49:53.660Z,6.30
2018-05-02T03:50:53.568Z,6.70
2018-05-02T03:51:53.466Z,7.30
2018-05-02T03:52:53.409Z,7.00
2018-05-02T03:53:53.259Z,7.50
2018-05-02T03:54:53.156Z,7.60
2018-05-02T03:55:53.053Z,8.00
2018-05-02T03:56:52.949Z,8.20
2018-05-02T03:57:52.846Z,8.20
2018-05-02T03:58:52.743Z,8.40
2018-05-02T03:59:52.639Z,8.30
2018-05-02T04:00:52.538Z,8.80
2018-05-02T04:01:52.433Z,8.50
2018-05-02T04:02:52.330Z,8.10
2018-05-02T04:03:52.226Z,8.00
2018-05-02T04:04:52.123Z,7.40
2018-05-02T04:05:52.020Z,7.30
2018-05-02T04:06:51.907Z,7.80
2018-05-02T04:07:51.825Z,7.30
2018-05-02T04:08:51.710Z,6.90
2018-05-02T04:09:51.607Z,6.80
2018-05-02T04:10:51.503Z,6.70
2018-05-02T04:11:51.398Z,6.60
2018-05-02T04:12:51.296Z,5.80
2018-05-02T04:13:51.193Z,5.80
2018-05-02T04:14:51.090Z,6.60
2018-05-02T04:15:50.987Z,5.90
2018-05-02T04:16:50.883Z,6.10
2018-05-02T04:17:50.792Z,5.80
2018-05-02T04:18:50.976Z,5.80
2018-05-02T04:19:50.572Z,5.50
2018-05-02T04:20:50.482Z,5.90
2018-05-02T04:21:50.371Z,5.70
2018-05-02T04:22:50.263Z,5.20
2018-05-02T04:23:50.161Z,5.40
2018-05-02T04:24:50.056Z,5.40
2018-05-02T04:25:49.954Z,5.50
2018-05-02T04:26:49.850Z,4.80
2018-05-02T04:27:49.747Z,5.00
2018-05-02T04:28:49.645Z,4.60
2018-05-02T04:29:49.555Z,4.70
2018-05-02T04:30:49.449Z,4.50
2018-05-02T04:31:49.346Z,4.50
2018-05-02T04:32:49.243Z,4.30
2018-05-02T04:33:49.139Z,4.10
2018-05-02T04:34:49.037Z,4.50
2018-05-02T04:35:48.933Z,4.40
2018-05-02T04:36:48.842Z,4.20
2018-05-02T04:37:48.738Z,4.70
2018-05-02T04:38:48.635Z,4.10
2018-05-02T04:39:48.532Z,4.20
2018-05-02T04:40:48.428Z,4.30
2018-05-02T04:41:48.325Z,4.10
2018-05-02T04:42:48.223Z,4.00
2018-05-02T04:43:48.124Z,3.80
2018-05-02T04:44:48.022Z,4.00
2018-05-02T04:45:47.918Z,4.00
2018-05-02T04:46:47.815Z,4.20
2018-05-02T04:47:47.723Z,3.90
2018-05-02T04:48:47.620Z,4.00
2018-05-02T04:49:47.517Z,3.90
2018-05-02T04:50:47.416Z,3.80
2018-05-02T04:51:47.312Z,4.00
2018-05-02T04:52:47.259Z,4.10
2018-05-02T04:53:47.116Z,3.90
2018-05-02T04:54:47.013Z,3.90
2018-05-02T04:55:46.922Z,4.20
2018-05-02T04:56:46.818Z,4.00
2018-05-02T04:57:46.719Z,4.10
2018-05-02T04:58:46.612Z,4.00
2018-05-02T04:59:46.521Z,4.20
2018-05-02T05:00:46.418Z,3.70
2018-05-02T05:01:46.314Z,3.80
2018-05-02T05:02:46.229Z,4.00
2018-05-02T05:03:46.107Z,4.10
2018-05-02T05:04:46.004Z,4.00
2018-05-02T05:05:45.914Z,3.80
2018-05-02T05:06:45.810Z,3.60
2018-05-02T05:07:45.706Z,3.80
2018-05-02T05:08:45.615Z,3.70
2018-05-02T05:09:45.512Z,3.70
2018-05-02T05:10:45.426Z,4.00
2018-05-02T05:11:45.319Z,4.50
2018-05-02T05:12:45.226Z,4.70
2018-05-02T05:13:45.129Z,4.00
2018-05-02T05:14:45.023Z,4.80
2018-05-02T05:15:44.930Z,5.10
2018-05-02T05:16:44.837Z,5.40
2018-05-02T05:17:44.734Z,6.30
2018-05-02T05:18:44.881Z,5.80
2018-05-02T05:19:44.566Z,6.00
2018-05-02T05:20:44.438Z,6.50
2018-05-02T05:21:44.347Z,6.60
2018-05-02T05:22:44.259Z,6.30
2018-05-02T05:23:44.153Z,6.60
2018-05-02T05:24:44.063Z,6.50
2018-05-02T05:25:43.959Z,6.70
2018-05-02T05:26:43.869Z,6.90
2018-05-02T05:27:43.777Z,7.30
2018-05-02T05:28:43.675Z,6.90
2018-05-02T05:29:43.584Z,7.00
2018-05-02T05:30:43.480Z,7.00
2018-05-02T05:31:43.390Z,7.80
2018-05-02T05:32:43.299Z,7.10
2018-05-02T05:33:43.195Z,7.40
2018-05-02T05:34:43.107Z,7.00
2018-05-02T05:35:43.003Z,6.80
2018-05-02T05:36:42.911Z,6.60
2018-05-02T05:37:42.833Z,6.90
2018-05-02T05:38:43.029Z,6.40
2018-05-02T05:39:42.626Z,6.70
2018-05-02T05:40:42.535Z,6.80
2018-05-02T05:41:42.431Z,6.30
2018-05-02T05:42:42.341Z,6.40
2018-05-02T05:43:42.297Z,6.30
2018-05-02T05:44:42.146Z,5.90
2018-05-02T05:45:42.044Z,6.60
2018-05-02T05:46:41.954Z,6.20
2018-05-02T05:47:41.863Z,6.30
2018-05-02T05:48:41.758Z,6.80
2018-05-02T05:49:41.668Z,6.60
2018-05-02T05:50:41.565Z,6.50
2018-05-02T05:51:41.473Z,6.30
2018-05-02T05:52:41.386Z,6.90
2018-05-02T05:53:41.285Z,5.80
2018-05-02T05:54:41.188Z,6.40
2018-05-02T05:55:41.084Z,6.40
2018-05-02T05:56:40.995Z,6.50
2018-05-02T05:57:40.891Z,6.70
2018-05-02T05:58:41.100Z,6.80
2018-05-02T05:59:40.696Z,7.10
2018-05-02T06:00:40.607Z,6.00
2018-05-02T06:01:40.509Z,6.80
2018-05-02T06:02:40.412Z,6.70
2018-05-02T06:03:40.323Z,5.90
2018-05-02T06:04:40.219Z,6.10
2018-05-02T06:05:40.126Z,6.30
2018-05-02T06:06:40.053Z,6.40
2018-05-02T06:07:39.933Z,6.20
2018-05-02T06:08:39.831Z,6.10
2018-05-02T06:09:39.738Z,5.90
2018-05-02T06:10:39.635Z,5.60
2018-05-02T06:11:39.547Z,5.60
2018-05-02T06:12:39.466Z,6.00
2018-05-02T06:13:39.350Z,5.70
2018-05-02T06:14:39.251Z,5.90
2018-05-02T06:15:39.157Z,5.90
2018-05-02T06:16:39.066Z,6.10
2018-05-02T06:17:38.963Z,6.30
2018-05-02T06:18:39.158Z,5.90
2018-05-02T06:19:38.769Z,6.30
2018-05-02T06:20:38.677Z,6.50
2018-05-02T06:21:38.574Z,6.10
2018-05-02T06:22:38.484Z,6.10
2018-05-02T06:23:38.380Z,6.00
2018-05-02T06:24:38.288Z,6.10
2018-05-02T06:25:38.186Z,6.00
2018-05-02T06:26:38.096Z,6.30
2018-05-02T06:27:38.004Z,6.40
2018-05-02T06:28:37.902Z,5.90
2018-05-02T06:29:37.811Z,5.90
2018-05-02T06:30:37.707Z,6.10
2018-05-02T06:31:37.654Z,6.20
2018-05-02T06:32:37.526Z,6.30
2018-05-02T06:33:37.421Z,6.20
2018-05-02T06:34:37.331Z,5.70
2018-05-02T06:35:37.241Z,5.60
2018-05-02T06:36:37.142Z,5.90
2018-05-02T06:37:37.109Z,5.60
2018-05-02T06:38:36.956Z,6.20
2018-05-02T06:39:36.852Z,6.00
2018-05-02T06:40:36.761Z,5.90
2018-05-02T06:41:36.672Z,5.70
2018-05-02T06:42:36.568Z,6.10
2018-05-02T06:43:36.491Z,6.20
2018-05-02T06:44:36.386Z,6.00
2018-05-02T06:45:36.284Z,5.80
2018-05-02T06:46:36.191Z,5.60
2018-05-02T06:47:36.102Z,5.70
2018-05-02T06:48:35.999Z,6.10
2018-05-02T06:49:35.906Z,5.40
2018-05-02T06:50:35.815Z,5.60
2018-05-02T06:51:35.713Z,5.30
2018-05-02T06:52:35.621Z,5.60
2018-05-02T06:53:35.521Z,4.90
2018-05-02T06:54:35.431Z,5.30
2018-05-02T06:55:35.350Z,5.50
2018-05-02T06:56:35.246Z,5.40
2018-05-02T06:57:35.143Z,5.60
2018-05-02T06:58:35.052Z,5.50
2018-05-02T06:59:34.961Z,5.30
2018-05-02T07:00:34.859Z,5.40
2018-05-02T07:01:34.766Z,5.50
2018-05-02T07:02:34.676Z,5.80
2018-05-02T07:03:34.573Z,5.40
2018-05-02T07:04:34.481Z,5.90
2018-05-02T07:05:34.392Z,5.50
2018-05-02T07:06:34.300Z,5.70
2018-05-02T07:07:34.197Z,5.70
2018-05-02T07:08:34.107Z,5.70
2018-05-02T07:09:34.018Z,5.20
2018-05-02T07:10:33.912Z,5.20
2018-05-02T07:11:33.821Z,5.60
2018-05-02T07:12:33.743Z,5.70
2018-05-02T07:13:33.649Z,5.80
2018-05-02T07:14:33.542Z,5.40
2018-05-02T07:15:33.445Z,5.50
2018-05-02T07:16:33.355Z,5.50
2018-05-02T07:17:33.263Z,6.00
2018-05-02T07:18:33.161Z,5.90
2018-05-02T07:19:33.070Z,5.20
2018-05-02T07:20:32.979Z,5.80
2018-05-02T07:21:32.888Z,5.90
2018-05-02T07:22:32.785Z,5.30
2018-05-02T07:23:32.694Z,6.30
2018-05-02T07:24:32.604Z,6.00
2018-05-02T07:25:32.513Z,6.00
2018-05-02T07:26:32.421Z,5.90
2018-05-02T07:27:32.319Z,5.90
2018-05-02T07:28:32.228Z,5.70
2018-05-02T07:29:32.137Z,6.40
2018-05-02T07:30:32.045Z,5.90
2018-05-02T07:31:31.956Z,5.90
2018-05-02T07:32:31.888Z,5.90
2018-05-02T07:33:31.761Z,5.90
2018-05-02T07:34:31.674Z,6.00
2018-05-02T07:35:31.579Z,5.80
2018-05-02T07:36:31.488Z,6.00
2018-05-02T07:37:31.398Z,6.20
2018-05-02T07:38:31.309Z,5.70
2018-05-02T07:39:31.205Z,5.80
2018-05-02T07:40:31.112Z,5.80
2018-05-02T07:41:31.023Z,5.80
2018-05-02T07:42:30.931Z,6.40
2018-05-02T07:43:30.840Z,6.10
2018-05-02T07:44:30.749Z,5.40
2018-05-02T07:45:30.646Z,6.10
2018-05-02T07:46:30.560Z,6.20
2018-05-02T07:47:30.465Z,5.40
2018-05-02T07:48:30.443Z,5.80
2018-05-02T07:49:30.290Z,5.60
2018-05-02T07:50:30.193Z,5.60
2018-05-02T07:51:30.089Z,5.80
2018-05-02T07:52:30.001Z,6.00
2018-05-02T07:53:29.908Z,5.30
2018-05-02T07:54:29.830Z,5.60
2018-05-02T07:55:29.725Z,5.90
2018-05-02T07:56:29.662Z,5.50
2018-05-02T07:57:29.531Z,5.60
2018-05-02T07:58:29.442Z,6.00
2018-05-02T07:59:29.349Z,5.80
2018-05-02T08:00:29.259Z,6.20
2018-05-02T08:01:29.167Z,6.40
2018-05-02T08:02:29.078Z,6.20
2018-05-02T08:03:28.988Z,6.00
2018-05-02T08:04:28.883Z,6.60
2018-05-02T08:05:28.792Z,5.90
2018-05-02T08:06:28.701Z,5.80
2018-05-02T08:07:28.616Z,5.50
2018-05-02T08:08:28.520Z,5.50
2018-05-02T08:09:28.430Z,6.00
2018-05-02T08:10:28.337Z,5.90
2018-05-02T08:11:28.247Z,5.80
2018-05-02T08:12:28.148Z,6.10
2018-05-02T08:13:28.052Z,5.80
2018-05-02T08:14:27.963Z,5.80
2018-05-02T08:15:27.872Z,5.80
2018-05-02T08:16:27.790Z,5.70
2018-05-02T08:17:27.689Z,5.60
2018-05-02T08:18:27.600Z,5.70
2018-05-02T08:19:27.508Z,5.80
2018-05-02T08:20:27.419Z,5.90
2018-05-02T08:21:27.326Z,5.70
2018-05-02T08:22:27.236Z,5.50
2018-05-02T08:23:27.133Z,5.70
2018-05-02T08:24:27.042Z,5.20
2018-05-02T08:25:26.951Z,5.60
2018-05-02T08:26:26.860Z,5.70
2018-05-02T08:27:26.779Z,5.20
2018-05-02T08:28:26.683Z,5.60
2018-05-02T08:29:26.589Z,5.80
2018-05-02T08:30:26.497Z,5.80
2018-05-02T08:31:26.407Z,5.40
2018-05-02T08:32:26.316Z,5.60
2018-05-02T08:33:26.225Z,5.70
2018-05-02T08:34:26.133Z,5.40
2018-05-02T08:35:26.044Z,5.70
2018-05-02T08:36:25.952Z,5.70
2018-05-02T08:37:25.862Z,4.90
2018-05-02T08:38:26.020Z,5.80
2018-05-02T08:39:25.683Z,5.30
2018-05-02T08:40:25.588Z,5.40
2018-05-02T08:41:25.487Z,5.60
2018-05-02T08:42:25.396Z,5.30
2018-05-02T08:43:25.304Z,5.50
2018-05-02T08:44:25.216Z,5.50
2018-05-02T08:45:25.122Z,5.20
2018-05-02T08:46:25.033Z,4.80
2018-05-02T08:47:24.940Z,4.80
2018-05-02T08:48:24.851Z,5.30
2018-05-02T08:49:24.774Z,5.80
2018-05-02T08:50:24.668Z,4.90
2018-05-02T08:51:24.577Z,5.40
2018-05-02T08:52:24.488Z,4.80
2018-05-02T08:53:24.408Z,5.10
2018-05-02T08:54:24.305Z,4.60
2018-05-02T08:55:24.213Z,5.00
2018-05-02T08:56:24.123Z,4.80
2018-05-02T08:57:24.103Z,5.10
2018-05-02T08:58:24.229Z,4.70
2018-05-02T08:59:23.839Z,4.70
2018-05-02T09:00:23.747Z,4.70
2018-05-02T09:01:23.657Z,4.60
2018-05-02T09:02:23.566Z,4.70
2018-05-02T09:03:23.475Z,4.60
2018-05-02T09:04:23.384Z,5.00
2018-05-02T09:05:23.293Z,4.60
2018-05-02T09:06:23.202Z,4.90
2018-05-02T09:07:23.111Z,5.30
2018-05-02T09:08:23.021Z,4.50
2018-05-02T09:09:22.930Z,4.40
2018-05-02T09:10:22.840Z,4.40
2018-05-02T09:11:22.736Z,4.30
2018-05-02T09:12:22.647Z,4.40
2018-05-02T09:13:22.557Z,4.30
2018-05-02T09:14:22.467Z,4.50
2018-05-02T09:15:22.372Z,4.20
2018-05-02T09:16:22.286Z,4.20
2018-05-02T09:17:22.190Z,4.20
2018-05-02T09:18:22.100Z,4.30
2018-05-02T09:19:21.999Z,4.20
2018-05-02T09:20:21.912Z,4.10
2018-05-02T09:21:21.816Z,3.90
2018-05-02T09:22:21.724Z,4.10
2018-05-02T09:23:21.634Z,4.10
2018-05-02T09:24:21.543Z,4.70
2018-05-02T09:25:21.452Z,4.20
2018-05-02T09:26:21.350Z,3.80
2018-05-02T09:27:21.258Z,3.90
2018-05-02T09:28:21.167Z,3.50
2018-05-02T09:29:21.102Z,3.80
2018-05-02T09:30:20.972Z,3.60
2018-05-02T09:31:20.884Z,4.00
2018-05-02T09:32:20.790Z,3.60
2018-05-02T09:33:20.690Z,3.80
2018-05-02T09:34:20.597Z,3.40
2018-05-02T09:35:20.506Z,3.60
2018-05-02T09:36:20.416Z,3.60
2018-05-02T09:37:20.314Z,3.90
2018-05-02T09:38:20.220Z,3.80
2018-05-02T09:39:20.135Z,3.30
2018-05-02T09:40:20.039Z,3.30
2018-05-02T09:41:19.936Z,3.90
2018-05-02T09:42:19.845Z,3.70
2018-05-02T09:43:19.756Z,3.20
2018-05-02T09:44:19.654Z,3.60
2018-05-02T09:45:19.561Z,3.40
2018-05-02T09:46:19.471Z,3.60
2018-05-02T09:47:19.367Z,3.20
2018-05-02T09:48:19.277Z,3.30
2018-05-02T09:49:19.197Z,3.30
2018-05-02T09:50:19.094Z,3.40
2018-05-02T09:51:18.991Z,3.50
2018-05-02T09:52:18.900Z,3.60
2018-05-02T09:53:18.811Z,3.60
2018-05-02T09:54:18.706Z,3.30
2018-05-02T09:55:18.614Z,3.30
2018-05-02T09:56:18.524Z,3.60
2018-05-02T09:57:18.421Z,3.60
2018-05-02T09:58:18.353Z,3.60
2018-05-02T09:59:18.239Z,3.60
2018-05-02T10:00:18.148Z,3.30
2018-05-02T10:01:18.049Z,3.10
2018-05-02T10:02:17.954Z,3.00
2018-05-02T10:03:17.862Z,2.70
2018-05-02T10:04:17.760Z,3.10
2018-05-02T10:05:17.670Z,3.10
2018-05-02T10:06:17.578Z,3.50
2018-05-02T10:07:17.487Z,3.30
2018-05-02T10:08:17.385Z,3.20
2018-05-02T10:09:17.293Z,3.10
2018-05-02T10:10:17.189Z,3.00
2018-05-02T10:11:17.098Z,3.40
2018-05-02T10:12:17.007Z,3.20
2018-05-02T10:13:16.904Z,3.00
2018-05-02T10:14:16.815Z,3.10
2018-05-02T10:15:16.722Z,2.80
2018-05-02T10:16:16.621Z,3.10
2018-05-02T10:17:16.531Z,3.30
2018-05-02T10:18:16.455Z,3.40
2018-05-02T10:19:16.334Z,2.80
2018-05-02T10:20:16.248Z,3.10
2018-05-02T10:21:16.152Z,3.00
2018-05-02T10:22:16.112Z,2.80
2018-05-02T10:23:15.959Z,3.10
2018-05-02T10:24:15.876Z,2.90
2018-05-02T10:25:15.782Z,3.10
2018-05-02T10:26:15.721Z,3.00
2018-05-02T10:27:15.583Z,2.80
2018-05-02T10:28:15.480Z,3.30
2018-05-02T10:29:15.389Z,3.00
2018-05-02T10:30:15.299Z,3.10
2018-05-02T10:31:15.196Z,2.90
2018-05-02T10:32:15.107Z,3.40
2018-05-02T10:33:15.013Z,2.80
2018-05-02T10:34:14.911Z,3.00
2018-05-02T10:35:14.820Z,3.10
2018-05-02T10:36:14.728Z,3.20
2018-05-02T10:37:14.638Z,2.80
2018-05-02T10:38:14.785Z,3.00
2018-05-02T10:39:14.443Z,3.30
2018-05-02T10:40:14.353Z,2.80
2018-05-02T10:41:14.261Z,3.10
2018-05-02T10:42:14.158Z,3.40
2018-05-02T10:43:14.155Z,3.00
2018-05-02T10:44:13.977Z,3.10
2018-05-02T10:45:13.874Z,3.10
2018-05-02T10:46:13.784Z,3.30
2018-05-02T10:47:13.692Z,3.30
2018-05-02T10:48:13.602Z,3.40
2018-05-02T10:49:13.499Z,3.10
2018-05-02T10:50:13.407Z,3.00
2018-05-02T10:51:13.317Z,3.30
2018-05-02T10:52:13.225Z,3.10
2018-05-02T10:53:13.123Z,3.30
2018-05-02T10:54:13.032Z,3.20
2018-05-02T10:55:12.943Z,3.30
2018-05-02T10:56:12.852Z,3.40
2018-05-02T10:57:12.772Z,3.00
2018-05-02T10:58:12.669Z,3.60
2018-05-02T10:59:12.565Z,3.30
2018-05-02T11:00:12.488Z,3.20
2018-05-02T11:01:12.383Z,3.20
2018-05-02T11:02:12.292Z,3.20
2018-05-02T11:03:12.202Z,3.80
2018-05-02T11:04:12.099Z,3.60
2018-05-02T11:05:12.007Z,3.70
2018-05-02T11:06:11.918Z,3.70
2018-05-02T11:07:11.828Z,3.30
2018-05-02T11:08:11.736Z,3.20
2018-05-02T11:09:11.632Z,3.20
2018-05-02T11:10:11.540Z,3.40
2018-05-02T11:11:11.454Z,3.20
2018-05-02T11:12:11.364Z,3.00
2018-05-02T11:13:11.271Z,3.20
2018-05-02T11:14:11.172Z,3.30
2018-05-02T11:15:11.074Z,3.30
2018-05-02T11:16:10.984Z,3.60
2018-05-02T11:17:10.893Z,3.20
2018-05-02T11:18:10.803Z,3.10
2018-05-02T11:19:10.700Z,3.30
2018-05-02T11:20:10.621Z,3.10
2018-05-02T11:21:10.520Z,3.20
2018-05-02T11:22:10.426Z,3.50
2018-05-02T11:23:10.336Z,3.40
2018-05-02T11:24:10.258Z,3.10
2018-05-02T11:25:10.141Z,3.20
2018-05-02T11:26:10.052Z,3.20
2018-05-02T11:27:09.960Z,3.20
2018-05-02T11:28:09.870Z,3.30
2018-05-02T11:29:09.778Z,2.80
2018-05-02T11:30:09.687Z,2.60
2018-05-02T11:31:09.599Z,2.80
2018-05-02T11:32:09.493Z,2.80
2018-05-02T11:33:09.402Z,2.50
2018-05-02T11:34:09.312Z,2.60
2018-05-02T11:35:09.221Z,2.60
2018-05-02T11:36:09.129Z,2.30
2018-05-02T11:37:09.040Z,2.10
2018-05-02T11:38:09.187Z,2.30
2018-05-02T11:39:08.846Z,2.20
2018-05-02T11:40:08.755Z,2.20
2018-05-02T11:41:08.663Z,2.30
2018-05-02T11:42:08.573Z,2.30
2018-05-02T11:43:08.481Z,2.20
2018-05-02T11:44:08.397Z,2.30
2018-05-02T11:45:08.288Z,2.10
2018-05-02T11:46:08.197Z,2.30
2018-05-02T11:47:08.107Z,2.10
2018-05-02T11:48:08.015Z,2.20
2018-05-02T11:49:07.925Z,1.90
2018-05-02T11:50:07.821Z,1.80
2018-05-02T11:51:07.733Z,2.20
2018-05-02T11:52:07.640Z,1.80
2018-05-02T11:53:07.549Z,2.00
2018-05-02T11:54:07.458Z,1.70
2018-05-02T11:55:07.355Z,1.60
2018-05-02T11:56:07.264Z,1.90
2018-05-02T11:57:07.173Z,1.80
2018-05-02T11:58:07.082Z,1.70
2018-05-02T11:59:06.978Z,1.60
2018-05-02T12:00:06.889Z,1.90
2018-05-02T12:01:06.796Z,1.80
2018-05-02T12:02:06.707Z,1.80
2018-05-02T12:03:06.604Z,1.70
2018-05-02T12:04:06.513Z,1.90
2018-05-02T12:05:06.422Z,2.30
2018-05-02T12:06:06.318Z,2.00
2018-05-02T12:07:06.227Z,2.00
2018-05-02T12:08:06.137Z,1.80
2018-05-02T12:09:06.045Z,1.90
2018-05-02T12:10:05.941Z,2.00
2018-05-02T12:11:05.851Z,1.90
2018-05-02T12:12:05.760Z,1.80
2018-05-02T12:13:05.657Z,2.20
2018-05-02T12:14:05.568Z,1.90
2018-05-02T12:15:05.475Z,1.70
2018-05-02T12:16:05.423Z,1.60
2018-05-02T12:17:05.281Z,1.70
2018-05-02T12:18:05.189Z,1.60
2018-05-02T12:19:05.090Z,1.80
2018-05-02T12:20:05.001Z,1.90
2018-05-02T12:21:04.908Z,1.90
2018-05-02T12:22:04.802Z,2.00
2018-05-02T12:23:04.712Z,1.80
2018-05-02T12:24:04.608Z,1.60
2018-05-02T12:25:04.517Z,1.80
2018-05-02T12:26:04.427Z,2.00
2018-05-02T12:27:04.324Z,2.10
2018-05-02T12:28:04.232Z,2.00
2018-05-02T12:29:04.141Z,1.90
2018-05-02T12:30:04.039Z,2.00
2018-05-02T12:31:03.951Z,1.90
2018-05-02T12:32:03.844Z,2.10
2018-05-02T12:33:03.754Z,1.90
2018-05-02T12:34:03.664Z,1.90
2018-05-02T12:35:03.564Z,2.10
2018-05-02T12:36:03.473Z,2.10
2018-05-02T12:37:03.366Z,2.30
2018-05-02T12:38:03.275Z,2.00
2018-05-02T12:39:03.185Z,2.30
2018-05-02T12:40:03.081Z,2.20
2018-05-02T12:41:02.989Z,2.10
2018-05-02T12:42:02.887Z,2.60
2018-05-02T12:43:02.796Z,2.60
2018-05-02T12:44:02.708Z,2.50
2018-05-02T12:45:02.606Z,2.50
2018-05-02T12:46:02.511Z,2.40
2018-05-02T12:47:02.408Z,2.40
2018-05-02T12:48:02.317Z,2.50
2018-05-02T12:49:02.229Z,2.50
2018-05-02T12:50:02.127Z,2.40
2018-05-02T12:51:02.031Z,2.60
2018-05-02T12:52:01.941Z,3.20
2018-05-02T12:53:01.838Z,2.90
2018-05-02T12:54:01.747Z,2.80
2018-05-02T12:55:01.642Z,2.80
2018-05-02T12:56:01.617Z,2.90
2018-05-02T12:57:01.448Z,2.90
2018-05-02T12:58:01.359Z,2.70
2018-05-02T12:59:01.269Z,3.10
2018-05-02T13:00:01.167Z,3.30
2018-05-02T13:01:01.073Z,3.20
2018-05-02T13:02:00.969Z,3.60
2018-05-02T13:03:00.879Z,3.50
2018-05-02T13:04:00.791Z,3.40
2018-05-02T13:05:00.684Z,3.40
2018-05-02T13:06:00.594Z,3.40
2018-05-02T13:07:00.491Z,3.10
2018-05-02T13:08:00.399Z,3.90
2018-05-02T13:09:00.312Z,4.00
2018-05-02T13:10:00.206Z,3.50
2018-05-02T13:11:00.115Z,3.60
2018-05-02T13:12:00.025Z,3.60
2018-05-02T13:12:59.920Z,3.30
2018-05-02T13:13:59.830Z,3.50
2018-05-02T13:14:59.727Z,3.90
2018-05-02T13:15:59.636Z,3.50
2018-05-02T13:16:59.544Z,3.90